Time;durP1;ratioP1;P1;durP2;ratioP2;P2;SDS_P1;SDS_P2;PMS_P1;PMS_P2;Temp;Humidity;BMP_temperature;BMP_pressure;BME280_temperature;BME280_humidity;BME280_pressure;Samples;Min_cycle;Max_cycle;Signal;HPM_P1;HPM_P2
2021/12/16 00:10:58;;;;;;;42.95;19.33;;;;;;;2.61;100.00;100086.62;4501612;31;20119;-73
2021/12/16 00:30:45;;;;;;;45.80;19.30;;;;;;;2.29;100.00;100094.59;4499804;31;20092;-73
2021/12/16 00:33:17;;;;;;;43.72;17.30;;;;;;;2.23;100.00;100091.41;4501436;31;20092;-73
2021/12/16 00:35:49;;;;;;;41.55;17.23;;;;;;;2.26;100.00;100094.72;4501421;31;20091;-73
2021/12/16 00:38:17;;;;;;;41.60;18.23;;;;;;;2.26;100.00;100101.63;4501377;31;20566;-73
2021/12/16 00:40:45;;;;;;;44.65;18.83;;;;;;;2.23;100.00;100097.41;4501760;31;20100;-73
2021/12/16 00:56:07;;;;;;;44.65;18.77;;;;;;;2.25;100.00;100103.34;4501127;31;20454;-73
2021/12/16 00:58:45;;;;;;;49.08;20.30;;;;;;;2.37;100.00;100098.69;4500177;31;20103;-73
2021/12/16 01:34:21;;;;;;;44.17;18.00;;;;;;;2.20;100.00;100101.84;4501331;31;20743;-73
2021/12/16 01:39:59;;;;;;;43.67;17.65;;;;;;;2.37;100.00;100088.34;4501246;31;20144;-73
2021/12/16 01:50:35;;;;;;;45.95;19.10;;;;;;;2.48;100.00;100078.44;4500161;31;20105;-73
2021/12/16 01:55:45;;;;;;;41.42;16.92;;;;;;;2.44;100.00;100074.31;4501047;31;20092;-73
2021/12/16 01:58:18;;;;;;;40.58;17.83;;;;;;;2.39;100.00;100061.53;4501066;31;20099;-73
2021/12/16 02:01:01;;;;;;;43.65;17.27;;;;;;;2.42;100.00;100076.94;4500918;31;20088;-73
2021/12/16 02:03:46;;;;;;;41.40;18.15;;;;;;;2.42;100.00;100074.34;4500785;31;20106;-73
2021/12/16 02:08:49;;;;;;;;;;;;;;;2.42;100.00;100065.72;4501453;31;19988;-73
2021/12/16 02:27:47;;;;;;;42.20;16.83;;;;;;;2.42;100.00;100055.38;4484634;32;20100;-73
2021/12/16 02:35:35;;;;;;;48.22;19.55;;;;;;;2.42;100.00;100056.25;4500729;31;20453;-73
2021/12/16 02:38:05;;;;;;;50.45;18.58;;;;;;;2.37;100.00;100052.12;4500669;31;20115;-73
2021/12/16 02:40:34;;;;;;;43.50;18.58;;;;;;;2.40;100.00;100059.78;4500844;31;20088;-73
2021/12/16 02:43:21;;;;;;;47.65;18.87;;;;;;;2.45;100.00;100053.56;4500495;31;20443;-73
2021/12/16 02:48:37;;;;;;;49.55;19.67;;;;;;;2.34;100.00;100060.00;4500454;31;20466;-73
2021/12/16 02:51:05;;;;;;;41.53;17.33;;;;;;;2.40;100.00;100057.19;4500269;31;20423;-73
2021/12/16 02:53:35;;;;;;;50.00;19.95;;;;;;;2.45;100.00;100050.09;4500097;31;20088;-73
2021/12/16 02:56:03;;;;;;;49.03;19.12;;;;;;;2.51;100.00;100047.31;4500433;31;20096;-73
2021/12/16 02:58:32;;;;;;;48.75;18.87;;;;;;;2.52;100.00;100049.00;4499928;31;20152;-73
2021/12/16 03:01:05;;;;;;;50.88;20.23;;;;;;;2.50;100.00;100050.81;4500150;31;20179;-73
2021/12/16 03:03:35;;;;;;;49.05;22.05;;;;;;;2.46;100.00;100047.47;4502063;31;20080;-73
2021/12/16 03:06:03;;;;;;;48.92;20.17;;;;;;;2.48;100.00;100039.66;4501900;31;20148;-73
2021/12/16 03:08:32;;;;;;;43.70;18.45;;;;;;;2.46;100.00;100036.28;4502158;31;20524;-73
2021/12/16 03:14:22;;;;;;;49.97;19.00;;;;;;;2.56;100.00;100016.97;4502328;31;20106;-73
2021/12/16 03:16:36;;;;;;;50.72;20.42;;;;;;;2.58;100.00;100025.50;4497835;31;20107;-73
2021/12/16 03:19:15;;;;;;;48.00;20.27;;;;;;;2.63;100.00;100022.75;4502289;31;20084;-73
2021/12/16 03:21:51;;;;;;;47.65;19.90;;;;;;;2.57;100.00;100021.22;4500300;31;20121;-73
2021/12/16 03:35:26;;;;;;;51.20;19.00;;;;;;;2.58;100.00;100028.09;4502313;31;20084;-73
2021/12/16 03:37:58;;;;;;;54.60;20.27;;;;;;;2.58;100.00;100024.66;4501986;31;20382;-73
2021/12/16 03:40:27;;;;;;;47.33;19.48;;;;;;;2.47;100.00;100032.81;4502291;31;20088;-73
2021/12/16 03:43:16;;;;;;;52.28;19.75;;;;;;;2.54;100.00;100020.50;4502168;31;20076;-73
2021/12/16 03:48:40;;;;;;;59.72;21.75;;;;;;;2.50;100.00;100027.53;4501734;31;20139;-73
2021/12/16 03:51:12;;;;;;;49.25;20.75;;;;;;;2.53;100.00;100023.97;4501925;31;20793;-73
2021/12/16 03:53:42;;;;;;;53.50;21.33;;;;;;;2.44;100.00;100027.75;4501932;31;20152;-73
2021/12/16 03:56:11;;;;;;;50.28;20.35;;;;;;;2.47;100.00;100022.47;4502076;31;20084;-73
2021/12/16 03:58:39;;;;;;;55.38;21.80;;;;;;;2.49;100.00;100025.81;4501883;31;20152;-73
2021/12/16 04:01:11;;;;;;;50.00;21.37;;;;;;;2.53;100.00;100022.25;4501886;31;20096;-73
2021/12/16 04:03:39;;;;;;;56.65;21.73;;;;;;;2.46;100.00;100026.78;4501906;31;20176;-73
2021/12/16 04:06:07;;;;;;;45.40;19.60;;;;;;;2.51;100.00;100025.78;4501893;31;20118;-73
2021/12/16 04:08:34;;;;;;;53.17;20.30;;;;;;;2.48;100.00;100026.72;4501831;31;20170;-73
2021/12/16 04:11:12;;;;;;;46.53;20.37;;;;;;;2.54;100.00;100030.84;4501852;31;20119;-73
2021/12/16 04:13:53;;;;;;;44.67;18.08;;;;;;;2.56;100.00;100024.72;4500300;31;20744;-73
2021/12/16 04:16:26;;;;;;;53.67;20.25;;;;;;;2.53;100.00;100026.56;4501903;31;20171;-73
2021/12/16 04:19:14;;;;;;;51.70;21.42;;;;;;;2.53;100.00;100019.66;4501797;31;20160;-73
2021/12/16 04:21:47;;;;;;;55.05;21.42;;;;;;;2.55;100.00;100020.44;4499975;31;20156;-73
2021/12/16 04:24:14;;;;;;;47.67;20.62;;;;;;;2.54;100.00;100021.31;4484565;32;20180;-73
2021/12/16 04:26:43;;;;;;;51.50;20.52;;;;;;;2.56;100.00;100019.53;4485616;31;20096;-73
2021/12/16 04:29:11;;;;;;;48.42;20.33;;;;;;;2.48;100.00;100013.78;4494272;31;20087;-73
2021/12/16 04:31:40;;;;;;;46.13;19.92;;;;;;;2.59;100.00;100024.59;4501753;31;20100;-73
2021/12/16 04:34:08;;;;;;;49.97;20.02;;;;;;;2.55;100.00;100015.25;4501718;31;20092;-73
2021/12/16 04:36:36;;;;;;;51.10;21.42;;;;;;;2.47;100.00;100012.12;4501366;31;20100;-73
2021/12/16 04:39:11;;;;;;;50.55;19.35;;;;;;;2.55;100.00;100006.66;4501403;31;20489;-73
2021/12/16 04:41:40;;;;;;;46.42;19.08;;;;;;;2.51;100.00;100012.84;4501688;31;20084;-73
2021/12/16 04:44:11;;;;;;;46.83;20.17;;;;;;;2.38;100.00;100009.87;4501620;31;20108;-73
2021/12/16 04:46:39;;;;;;;58.50;20.12;;;;;;;2.40;100.00;100010.66;4501736;31;20412;-73
2021/12/16 04:49:08;;;;;;;53.78;19.02;;;;;;;2.35;100.00;100018.56;4501220;31;20099;-73
2021/12/16 04:51:39;;;;;;;49.78;20.45;;;;;;;2.28;100.00;100022.25;4501682;31;20142;-73
2021/12/16 04:54:08;;;;;;;48.85;18.85;;;;;;;2.31;100.00;100012.63;4501389;31;20104;-73
2021/12/16 04:56:36;;;;;;;53.05;20.45;;;;;;;2.31;100.00;100017.81;4501493;31;20821;-73
2021/12/16 04:59:08;;;;;;;50.03;20.65;;;;;;;2.29;100.00;100011.84;4501394;31;20096;-73
2021/12/16 05:01:40;;;;;;;46.70;20.20;;;;;;;2.32;100.00;100010.91;4501420;31;20485;-73
2021/12/16 05:04:08;;;;;;;53.83;20.92;;;;;;;2.30;100.00;100010.97;4500904;31;20088;-73
2021/12/16 05:06:36;;;;;;;48.10;19.90;;;;;;;2.28;100.00;100011.91;4499640;31;20088;-73
2021/12/16 05:09:06;;;;;;;45.22;19.55;;;;;;;2.26;100.00;100009.38;4500914;31;20136;-73
2021/12/16 05:11:35;;;;;;;45.05;20.48;;;;;;;2.29;100.00;100013.63;4501048;31;20096;-74
2021/12/16 05:14:04;;;;;;;49.58;22.37;;;;;;;2.22;100.00;100010.37;4500146;31;20591;-74
2021/12/16 05:16:32;;;;;;;50.40;20.95;;;;;;;2.25;100.00;100012.03;4501207;31;20460;-74
2021/12/16 05:19:00;;;;;;;49.08;20.75;;;;;;;2.23;100.00;100014.66;4501117;31;20092;-74
2021/12/16 05:24:25;;;;;;;45.55;18.73;;;;;;;2.11;100.00;100015.09;4500276;31;20232;-74
2021/12/16 05:26:59;;;;;;;48.22;19.90;;;;;;;2.15;100.00;100016.69;4501178;31;20091;-74
2021/12/16 05:29:27;;;;;;;55.55;20.95;;;;;;;2.16;100.00;100023.53;4489657;31;20110;-74
2021/12/16 05:31:55;;;;;;;50.67;20.27;;;;;;;2.17;100.00;100022.63;4485156;31;20488;-74
2021/12/16 05:34:23;;;;;;;49.03;19.62;;;;;;;2.16;100.00;100026.09;4483574;31;20446;-74
2021/12/16 05:37:09;;;;;;;50.05;20.62;;;;;;;2.16;100.00;100026.09;4483184;32;20140;-74
2021/12/16 05:39:37;;;;;;;44.00;19.23;;;;;;;2.24;100.00;100033.59;4484035;31;20510;-74
2021/12/16 05:42:05;;;;;;;47.22;19.73;;;;;;;2.25;100.00;100022.38;4490739;31;20108;-74
2021/12/16 05:44:32;;;;;;;48.13;19.70;;;;;;;2.33;100.00;100033.28;4500961;31;20429;-74
2021/12/16 05:47:00;;;;;;;54.03;21.35;;;;;;;2.38;100.00;100033.13;4500961;31;20498;-74
2021/12/16 05:49:27;;;;;;;52.10;21.17;;;;;;;2.30;100.00;100042.00;4500633;31;20164;-74
2021/12/16 05:51:54;;;;;;;49.58;20.45;;;;;;;2.31;100.00;100037.66;4499880;31;20361;-74
2021/12/16 05:54:22;;;;;;;49.92;21.00;;;;;;;2.31;100.00;100040.25;4499736;31;20092;-74
2021/12/16 05:56:50;;;;;;;52.25;20.15;;;;;;;2.42;100.00;100039.88;4499056;31;20528;-74
2021/12/16 05:59:18;;;;;;;53.03;21.02;;;;;;;2.43;100.00;100041.56;4499264;31;20152;-74
2021/12/16 06:01:48;;;;;;;52.62;21.25;;;;;;;2.34;100.00;100049.66;4499983;31;20095;-74
2021/12/16 06:04:17;;;;;;;50.85;20.58;;;;;;;2.37;100.00;100049.53;4500463;31;20798;-74
2021/12/16 06:06:44;;;;;;;48.63;20.12;;;;;;;2.37;100.00;100041.78;4499379;31;20100;-74
2021/12/16 06:09:11;;;;;;;49.95;19.45;;;;;;;2.41;100.00;100039.03;4500971;31;20121;-74
2021/12/16 06:11:41;;;;;;;50.70;20.00;;;;;;;2.52;100.00;100046.41;4499184;31;20126;-73
2021/12/16 06:14:18;;;;;;;52.65;20.73;;;;;;;2.50;100.00;100043.03;4500579;31;20155;-73
2021/12/16 06:23:08;;;;;;;47.00;19.30;;;;;;;2.37;100.00;100044.37;4494537;31;20128;-73
2021/12/16 06:28:10;;;;;;;45.22;19.17;;;;;;;2.44;100.00;100044.09;4489241;31;20088;-74
2021/12/16 06:30:40;;;;;;;46.90;19.60;;;;;;;2.46;100.00;100051.81;4497337;31;20087;-73
2021/12/16 06:33:10;;;;;;;47.47;21.20;;;;;;;2.57;100.00;100049.66;4499067;31;20480;-73
2021/12/16 06:35:37;;;;;;;47.15;20.25;;;;;;;2.59;100.00;100052.19;4498734;31;20095;-75
2021/12/16 06:38:08;;;;;;;45.85;19.27;;;;;;;2.53;100.00;100053.28;4497647;31;20099;-74
2021/12/16 06:40:38;;;;;;;48.08;19.52;;;;;;;2.52;100.00;100059.34;4492291;31;20106;-75
2021/12/16 06:43:07;;;;;;;47.62;19.95;;;;;;;2.59;100.00;100054.78;4500447;31;20084;-75
2021/12/16 06:45:38;;;;;;;50.85;20.95;;;;;;;2.48;100.00;100060.34;4499861;31;20122;-75
2021/12/16 06:48:11;;;;;;;48.53;20.62;;;;;;;2.58;100.00;100056.53;4498971;31;20119;-75
2021/12/16 06:53:53;;;;;;;48.15;19.33;;;;;;;2.64;100.00;100061.50;4451476;32;20167;-73
2021/12/16 06:56:31;;;;;;;43.63;19.65;;;;;;;2.73;100.00;100059.50;4454075;32;20160;-74
2021/12/16 06:59:19;;;;;;;50.72;21.02;;;;;;;2.62;100.00;100067.63;4448079;32;20211;-74
2021/12/16 07:02:00;;;;;;;46.28;18.58;;;;;;;2.43;100.00;100072.59;4437367;32;20550;-74
2021/12/16 07:04:28;;;;;;;41.88;18.37;;;;;;;2.49;100.00;100072.38;4446893;32;20140;-74
2021/12/16 07:06:55;;;;;;;46.15;19.67;;;;;;;2.44;100.00;100074.31;4450510;32;20116;-74
2021/12/16 07:09:23;;;;;;;49.97;20.60;;;;;;;2.44;100.00;100069.12;4464638;32;20146;-74
2021/12/16 07:11:56;;;;;;;52.95;22.25;;;;;;;2.42;100.00;100074.34;4453964;32;20147;-75
2021/12/16 07:14:35;;;;;;;44.08;18.92;;;;;;;2.44;100.00;100079.47;4449249;32;20105;-75
2021/12/16 07:17:09;;;;;;;48.25;19.45;;;;;;;2.52;100.00;100074.03;4449184;32;20101;-75
2021/12/16 07:19:37;;;;;;;53.40;20.43;;;;;;;2.56;100.00;100073.88;4454406;32;20089;-75
2021/12/16 07:22:06;;;;;;;55.92;21.70;;;;;;;2.53;100.00;100068.81;4449436;32;20089;-75
2021/12/16 07:24:34;;;;;;;49.47;21.30;;;;;;;2.56;100.00;100073.00;4449618;32;20128;-75
2021/12/16 07:27:02;;;;;;;49.78;20.83;;;;;;;2.44;100.00;100064.78;4449713;32;20545;-75
2021/12/16 07:29:29;;;;;;;57.40;21.80;;;;;;;2.46;100.00;100070.75;4458114;32;20080;-75
2021/12/16 07:31:59;;;;;;;50.05;21.42;;;;;;;2.42;100.00;100076.06;4498008;31;20096;-76
2021/12/16 07:34:26;;;;;;;55.33;21.87;;;;;;;2.59;100.00;100080.66;4499684;31;20092;-76
2021/12/16 07:36:54;;;;;;;52.95;20.67;;;;;;;2.58;100.00;100081.56;4499235;31;20095;-77
2021/12/16 07:39:28;;;;;;;55.75;21.95;;;;;;;2.62;100.00;100072.78;4498700;31;20487;-77
2021/12/16 07:41:58;;;;;;;43.60;17.45;;;;;;;2.71;100.00;100066.44;4498219;31;20110;-76
2021/12/16 07:44:28;;;;;;;54.03;20.98;;;;;;;2.77;100.00;100066.22;4498034;31;20172;-76
2021/12/16 07:46:59;;;;;;;51.47;20.77;;;;;;;2.73;100.00;100068.09;4499313;31;20115;-76
2021/12/16 07:49:32;;;;;;;52.33;20.17;;;;;;;2.87;100.00;100067.59;4499366;31;20092;-76
2021/12/16 07:52:04;;;;;;;53.80;20.33;;;;;;;2.91;100.00;100074.34;4498221;31;20742;-76
2021/12/16 07:54:31;;;;;;;56.95;21.27;;;;;;;2.90;100.00;100064.88;4498142;31;20112;-75
2021/12/16 07:56:59;;;;;;;45.63;18.70;;;;;;;2.91;100.00;100063.16;4500520;31;20096;-75
2021/12/16 07:59:28;;;;;;;51.25;22.90;;;;;;;2.94;100.00;100065.62;4500040;31;20480;-75
2021/12/16 08:01:56;;;;;;;45.28;19.17;;;;;;;3.02;100.00;100072.19;4500132;31;20087;-76
2021/12/16 08:04:29;;;;;;;50.25;19.92;;;;;;;3.02;100.00;100068.75;4500687;31;20160;-76
2021/12/16 08:06:59;;;;;;;42.78;19.62;;;;;;;3.12;100.00;100064.94;4501704;31;20464;-76
2021/12/16 08:09:27;;;;;;;45.65;18.20;;;;;;;2.96;100.00;100077.59;4501249;31;20095;-76
2021/12/16 08:11:54;;;;;;;51.63;19.65;;;;;;;3.03;100.00;100070.47;4501655;31;20084;-75
2021/12/16 08:14:21;;;;;;;56.75;22.25;;;;;;;3.09;100.00;100071.97;4501222;31;20108;-76
2021/12/16 08:16:49;;;;;;;48.38;20.55;;;;;;;3.15;100.00;100075.19;4501260;31;20183;-77
2021/12/16 08:19:16;;;;;;;58.97;22.25;;;;;;;3.14;100.00;100070.87;4501834;31;20118;-77
2021/12/16 08:21:43;;;;;;;50.12;19.87;;;;;;;3.14;100.00;100070.06;4501442;31;20108;-77
2021/12/16 08:24:14;;;;;;;43.92;19.25;;;;;;;3.15;100.00;100074.31;4501468;31;20148;-77
2021/12/16 08:26:41;;;;;;;49.00;20.25;;;;;;;3.14;100.00;100073.47;4500836;31;20092;-77
2021/12/16 08:29:08;;;;;;;49.40;20.30;;;;;;;3.12;100.00;100071.84;4501539;31;20485;-77
2021/12/16 08:31:36;;;;;;;47.13;19.17;;;;;;;3.18;100.00;100071.63;4500653;31;20430;-78
2021/12/16 08:34:05;;;;;;;46.60;19.10;;;;;;;3.15;100.00;100071.72;4499221;31;21009;-78
2021/12/16 08:36:33;;;;;;;46.13;20.58;;;;;;;3.10;100.00;100068.47;4499591;31;20167;-78
2021/12/16 08:39:04;;;;;;;49.80;19.40;;;;;;;3.15;100.00;100061.37;4497322;31;20154;-78
2021/12/16 08:41:35;;;;;;;61.78;23.12;;;;;;;3.19;100.00;100063.81;4490964;31;20166;-77
2021/12/16 08:44:03;;;;;;;55.33;20.23;;;;;;;3.17;100.00;100059.59;4494743;31;20138;-78
2021/12/16 08:46:33;;;;;;;43.13;17.23;;;;;;;3.27;100.00;100055.75;4496290;31;20096;-79
2021/12/16 08:49:00;;;;;;;45.15;18.25;;;;;;;3.41;100.00;100068.16;4491292;31;20542;-78
2021/12/16 08:51:32;;;;;;;40.70;18.55;;;;;;;3.41;100.00;100067.28;4491782;31;20111;-76
2021/12/16 08:53:59;;;;;;;47.50;19.95;;;;;;;3.44;100.00;100062.03;4495487;31;20123;-78
2021/12/16 08:56:27;;;;;;;30.73;14.55;;;;;;;3.50;100.00;100065.22;4500513;31;20104;-78
2021/12/16 08:58:56;;;;;;;48.63;18.77;;;;;;;3.65;100.00;100063.75;4501011;31;20099;-77
2021/12/16 09:01:26;;;;;;;46.08;19.95;;;;;;;3.80;100.00;100089.97;4500316;31;20100;-76
2021/12/16 09:03:55;;;;;;;49.60;21.73;;;;;;;3.96;100.00;100070.28;4500559;31;20369;-77
2021/12/16 09:06:24;;;;;;;45.97;19.15;;;;;;;4.13;100.00;100061.81;4501236;31;20793;-76
2021/12/16 09:08:52;;;;;;;44.92;20.90;;;;;;;4.24;100.00;100080.38;4499651;31;20100;-75
2021/12/16 09:11:23;;;;;;;48.97;20.52;;;;;;;4.37;100.00;100054.72;4498880;31;20144;-75
2021/12/16 09:13:53;;;;;;;38.83;16.92;;;;;;;4.58;100.00;100059.91;4498053;31;20096;-76
2021/12/16 09:16:23;;;;;;;49.42;20.20;;;;;;;4.58;100.00;100063.34;4500044;31;20118;-76
2021/12/16 09:18:51;;;;;;;53.63;19.87;;;;;;;4.51;100.00;100051.56;4500683;31;20091;-76
2021/12/16 09:21:21;;;;;;;32.75;14.43;;;;;;;4.66;100.00;100062.16;4500545;31;20100;-77
2021/12/16 09:23:50;;;;;;;49.63;20.77;;;;;;;4.57;100.00;100053.91;4499446;31;20116;-76
2021/12/16 09:26:19;;;;;;;53.95;23.27;;;;;;;4.58;100.00;100057.31;4499887;31;20543;-76
2021/12/16 09:28:46;;;;;;;44.70;20.60;;;;;;;4.62;100.00;100059.72;4501347;31;20385;-77
2021/12/16 09:31:17;;;;;;;37.08;16.85;;;;;;;4.69;100.00;100054.25;4500778;31;20540;-76
2021/12/16 09:33:53;;;;;;;37.42;17.02;;;;;;;4.60;100.00;100063.28;4500711;31;20123;-76
2021/12/16 09:36:25;;;;;;;50.30;21.12;;;;;;;4.56;100.00;100061.75;4497393;31;20096;-76
2021/12/16 09:38:53;;;;;;;48.58;20.42;;;;;;;4.54;100.00;100053.16;4500324;31;20096;-78
2021/12/16 09:41:21;;;;;;;48.97;18.87;;;;;;;4.64;100.00;100056.22;4497965;31;20100;-77
2021/12/16 09:43:50;;;;;;;53.05;22.20;;;;;;;4.66;100.00;100046.59;4499727;31;20123;-77
2021/12/16 09:46:21;;;;;;;41.78;18.02;;;;;;;4.75;100.00;100047.06;4498550;31;20171;-77
2021/12/16 09:48:49;;;;;;;49.15;19.70;;;;;;;4.79;100.00;100050.34;4488611;31;166528;-76
2021/12/16 09:51:22;;;;;;;39.55;16.62;;;;;;;4.91;100.00;100052.38;4493557;31;20089;-76
2021/12/16 09:53:54;;;;;;;44.30;21.35;;;;;;;5.07;100.00;100044.75;4499357;31;20092;-76
2021/12/16 09:56:23;;;;;;;46.45;19.10;;;;;;;5.17;100.00;100049.50;4500502;31;20079;-75
2021/12/16 09:58:51;;;;;;;36.78;18.20;;;;;;;5.27;100.00;100038.62;4484858;31;20088;-76
2021/12/16 10:01:23;;;;;;;41.08;18.05;;;;;;;5.00;100.00;100048.53;4490711;31;20079;-74
2021/12/16 10:04:00;;;;;;;43.35;18.48;;;;;;;5.30;100.00;100041.06;4500333;31;20092;-74
2021/12/16 10:06:28;;;;;;;39.45;18.00;;;;;;;5.52;100.00;100040.03;4500038;31;20522;-75
2021/12/16 10:08:59;;;;;;;43.83;18.95;;;;;;;5.67;98.90;100041.06;4500698;31;20156;-75
2021/12/16 10:11:28;;;;;;;42.75;18.10;;;;;;;5.55;98.17;100037.28;4496128;31;20084;-75
2021/12/16 10:14:15;;;;;;;42.28;18.12;;;;;;;5.44;98.82;100036.97;4496704;31;20131;-75
2021/12/16 10:19:33;;;;;;;35.05;16.25;;;;;;;5.57;98.39;100034.63;4498990;31;20084;-75
2021/12/16 10:22:18;;;;;;;41.83;17.67;;;;;;;5.65;97.03;100025.53;4499581;31;20095;-75
2021/12/16 10:24:45;;;;;;;;;;;;;;;5.72;97.10;100020.88;4499072;31;20083;-74
2021/12/16 10:27:26;;;;;;;38.53;16.45;;;;;;;5.51;97.57;100026.22;4499167;31;20021;-73
2021/12/16 10:30:04;;;;;;;36.90;16.85;;;;;;;5.41;98.55;100026.72;4491668;31;20100;-74
2021/12/16 10:32:39;;;;;;;28.35;14.13;;;;;;;5.26;99.06;100010.94;4499982;31;20159;-73
2021/12/16 10:35:14;;;;;;;37.15;16.15;;;;;;;5.10;99.41;100020.37;4499637;31;20126;-74
2021/12/16 10:37:50;;;;;;;35.72;15.43;;;;;;;4.96;100.00;100015.81;4497182;31;20080;-74
2021/12/16 10:40:40;;;;;;;31.80;15.02;;;;;;;4.78;100.00;100007.97;4499891;31;20084;-74
2021/12/16 10:43:11;;;;;;;31.30;14.80;;;;;;;4.72;100.00;100008.22;4500477;31;20096;-74
2021/12/16 10:45:45;;;;;;;39.67;17.37;;;;;;;4.67;100.00;100009.34;4499575;31;20084;-73
2021/12/16 10:48:15;;;;;;;33.70;14.73;;;;;;;4.88;100.00;100008.38;4500095;31;20087;-73
2021/12/16 10:50:59;;;;;;;37.53;17.05;;;;;;;4.98;100.00;100016.56;4498960;31;20096;-73
2021/12/16 10:54:01;;;;;;;39.80;16.58;;;;;;;5.21;100.00;100001.66;4499163;31;20095;-73
2021/12/16 10:56:38;;;;;;;34.75;12.73;;;;;;;5.51;98.64;100007.16;4498851;31;20099;-73
2021/12/16 10:59:21;;;;;;;33.65;14.82;;;;;;;5.63;97.34;100000.53;4484226;31;20128;-73
2021/12/16 11:01:55;;;;;;;37.72;17.52;;;;;;;5.51;97.28;100002.81;4484307;31;20481;-73
2021/12/16 11:04:39;;;;;;;34.10;15.57;;;;;;;5.49;98.02;100014.19;4484133;32;20104;-73
2021/12/16 11:07:10;;;;;;;32.67;16.37;;;;;;;5.48;98.11;99999.50;4497227;31;20085;-73
2021/12/16 11:09:42;;;;;;;33.45;15.98;;;;;;;5.59;98.08;100009.41;4500175;31;20140;-73
2021/12/16 11:12:34;;;;;;;35.83;16.17;;;;;;;5.79;96.66;100014.47;4499951;31;20148;-73
2021/12/16 11:15:42;;;;;;;37.72;16.15;;;;;;;5.66;97.13;100015.97;4499701;31;20123;-73
2021/12/16 11:18:20;;;;;;;32.53;14.93;;;;;;;5.61;97.95;100007.56;4449552;32;20124;-73
2021/12/16 11:20:49;;;;;;;40.72;16.08;;;;;;;5.64;98.43;100002.22;4450582;32;20167;-74
2021/12/16 11:23:22;;;;;;;33.47;14.85;;;;;;;5.75;98.13;99989.53;4451373;32;20127;-74
2021/12/16 11:25:51;;;;;;;38.33;16.95;;;;;;;5.79;97.23;99996.25;4439027;32;20530;-74
2021/12/16 11:28:18;;;;;;;38.10;16.95;;;;;;;5.84;97.58;99999.50;4451985;32;20152;-73
2021/12/16 11:31:00;;;;;;;31.33;12.82;;;;;;;5.80;98.13;100003.16;4452200;32;20147;-73
2021/12/16 11:33:39;;;;;;;29.52;13.60;;;;;;;5.83;96.77;99986.56;4451822;32;20538;-73
2021/12/16 11:36:28;;;;;;;30.12;12.02;;;;;;;5.79;96.94;99979.81;4451719;32;20142;-74
2021/12/16 11:39:09;;;;;;;29.12;13.50;;;;;;;5.95;96.53;99995.47;4451674;32;20146;-74
2021/12/16 11:41:48;;;;;;;29.37;13.27;;;;;;;5.85;97.22;99977.75;4452281;32;20176;-74
2021/12/16 11:44:28;;;;;;;26.87;11.75;;;;;;;5.99;96.63;99977.06;4436844;32;20200;-74
2021/12/16 11:47:10;;;;;;;23.38;12.30;;;;;;;5.73;96.87;99965.38;4443732;32;20545;-74
2021/12/16 11:49:44;;;;;;;22.52;11.82;;;;;;;5.66;97.79;99977.84;4450724;32;20165;-74
2021/12/16 11:52:24;;;;;;;28.10;14.82;;;;;;;5.63;98.00;99979.72;4450718;32;20139;-74
2021/12/16 11:54:55;;;;;;;30.20;14.93;;;;;;;5.39;99.41;99968.78;4476748;31;20566;-73
2021/12/16 11:57:42;;;;;;;28.50;13.23;;;;;;;5.43;99.86;99967.72;4499437;31;20641;-74
2021/12/16 12:00:16;;;;;;;31.55;13.90;;;;;;;5.43;99.75;99970.31;4500161;31;20521;-74
2021/12/16 12:02:52;;;;;;;27.05;13.57;;;;;;;5.42;100.00;99961.69;4490639;31;20130;-73
2021/12/16 12:05:42;;;;;;;30.02;15.15;;;;;;;5.42;100.00;99953.91;4496967;31;20113;-73
2021/12/16 12:08:35;;;;;;;27.83;12.18;;;;;;;5.47;99.98;99953.66;4496043;31;20394;-74
2021/12/16 12:11:27;;;;;;;27.55;11.77;;;;;;;5.53;99.75;99955.09;4498897;31;20694;-73
2021/12/16 12:13:58;;;;;;;31.48;14.13;;;;;;;5.44;99.71;99969.41;4490595;31;20118;-73
2021/12/16 12:16:28;;;;;;;27.33;12.43;;;;;;;5.45;100.00;99958.94;4499380;31;20099;-73
2021/12/16 12:19:00;;;;;;;25.35;12.50;;;;;;;5.43;100.00;99955.56;4495179;31;20543;-73
2021/12/16 12:21:36;;;;;;;34.05;14.30;;;;;;;5.57;99.93;99951.44;4491373;31;20502;-74
2021/12/16 12:24:38;;;;;;;31.35;13.45;;;;;;;5.65;99.32;99967.53;4490804;31;20482;-74
2021/12/16 12:27:12;;;;;;;34.22;13.82;;;;;;;5.49;100.00;99964.81;4487995;31;20092;-74
2021/12/16 12:29:43;;;;;;;;;;;;;;;5.41;100.00;99960.00;4500307;31;20144;-74
2021/12/16 12:32:27;;;;;;;28.17;13.60;;;;;;;5.40;100.00;99958.31;4495885;31;20388;-73
2021/12/16 12:34:54;;;;;;;29.50;14.20;;;;;;;5.29;100.00;99958.84;4500592;31;20114;-73
2021/12/16 12:37:23;;;;;;;30.80;13.57;;;;;;;5.31;100.00;99959.62;4498827;31;20163;-73
2021/12/16 12:39:56;;;;;;;30.90;14.82;;;;;;;5.31;100.00;99962.22;4500298;31;20115;-73
2021/12/16 12:42:23;;;;;;;32.75;13.43;;;;;;;5.35;100.00;99962.91;4499585;31;20123;-73
2021/12/16 12:44:50;;;;;;;34.17;16.90;;;;;;;5.37;100.00;99962.81;4498811;31;20533;-73
2021/12/16 12:47:23;;;;;;;26.40;12.95;;;;;;;5.39;100.00;99956.66;4500304;31;20130;-74
2021/12/16 12:49:50;;;;;;;27.80;13.02;;;;;;;5.39;100.00;99955.78;4498475;31;20088;-73
2021/12/16 12:52:22;;;;;;;28.17;13.50;;;;;;;5.36;100.00;99950.75;4487249;31;20092;-74
2021/12/16 12:55:04;;;;;;;21.45;10.75;;;;;;;5.27;100.00;99950.28;4499219;31;20095;-74
2021/12/16 12:57:34;;;;;;;26.55;12.40;;;;;;;5.25;100.00;99948.66;4499132;31;20114;-74
2021/12/16 13:00:09;;;;;;;25.05;12.88;;;;;;;5.28;100.00;99949.38;4499249;31;20112;-73
2021/12/16 13:02:38;;;;;;;27.30;13.38;;;;;;;5.35;100.00;99960.31;4497128;31;20159;-73
2021/12/16 13:05:10;;;;;;;27.05;12.35;;;;;;;5.35;100.00;99955.09;4499601;31;20104;-73
2021/12/16 13:07:46;;;;;;;30.20;13.30;;;;;;;5.32;100.00;99960.44;4499672;31;20104;-73
2021/12/16 13:10:22;;;;;;;28.45;13.00;;;;;;;5.17;100.00;99956.81;4500619;31;20534;-73
2021/12/16 13:13:02;;;;;;;29.35;13.23;;;;;;;5.17;100.00;99956.00;4501207;31;20100;-73
2021/12/16 13:27:20;;;;;;;28.90;13.07;;;;;;;4.95;100.00;99967.38;4492873;31;20640;-73
2021/12/16 13:30:17;;;;;;;22.20;10.43;;;;;;;5.01;100.00;99966.25;4498918;31;20134;-73
2021/12/16 13:33:25;;;;;;;20.02;8.88;;;;;;;4.95;100.00;99973.44;4500709;31;20076;-73
2021/12/16 13:36:05;;;;;;;31.90;13.30;;;;;;;4.93;100.00;99984.78;4435727;32;20781;-73
2021/12/16 13:38:41;;;;;;;25.48;11.73;;;;;;;4.79;100.00;99973.28;4435028;32;20131;-73
2021/12/16 13:41:14;;;;;;;22.33;11.38;;;;;;;4.93;100.00;99984.78;4433291;32;20117;-73
2021/12/16 13:43:59;;;;;;;30.60;13.82;;;;;;;4.95;100.00;99982.97;4432551;32;20201;-73
2021/12/16 14:03:42;;;;;;;21.27;10.32;;;;;;;4.79;100.00;99988.88;4434023;32;20161;-73
2021/12/16 14:08:51;;;;;;;27.70;12.68;;;;;;;4.75;100.00;99986.47;4435134;32;20144;-73
2021/12/16 14:14:47;;;;;;;24.17;11.60;;;;;;;4.72;100.00;99984.84;4500437;31;20080;-73
2021/12/16 14:17:41;;;;;;;19.98;9.90;;;;;;;4.66;100.00;99992.94;4500443;31;20084;-73
2021/12/16 14:23:38;;;;;;;23.55;12.25;;;;;;;4.72;100.00;99979.66;4500331;31;20126;-73
2021/12/16 14:48:02;;;;;;;24.73;12.18;;;;;;;4.49;100.00;99995.44;4499993;31;20115;-73
2021/12/16 14:50:29;;;;;;;24.63;11.65;;;;;;;4.46;100.00;99993.00;4499666;31;20096;-73
2021/12/16 14:52:58;;;;;;;20.52;10.40;;;;;;;4.43;100.00;99999.97;4499943;31;20108;-73
2021/12/16 14:55:26;;;;;;;24.83;11.02;;;;;;;4.49;100.00;100004.06;4500027;31;20092;-73
2021/12/16 14:57:55;;;;;;;22.10;10.02;;;;;;;4.46;100.00;100005.97;4504798;31;20115;-73
2021/12/16 15:00:29;;;;;;;26.12;11.32;;;;;;;4.47;100.00;100002.44;4499860;31;20579;-73
2021/12/16 15:03:19;;;;;;;20.47;10.60;;;;;;;4.52;100.00;100000.50;4504063;31;20092;-73
2021/12/16 15:05:53;;;;;;;21.33;9.98;;;;;;;4.53;100.00;100003.03;4504962;31;20558;-73